sensor_id;sensor_type;location;lat;lon;timestamp;P1;durP1;ratioP1;P2;durP2;ratioP2
5493;SDS011;2769;49.864;8.656;2022-12-18T00:00:04;39.60;;;16.67;;
5493;SDS011;2769;49.864;8.656;2022-12-18T00:02:40;39.38;;;18.63;;
5493;SDS011;2769;49.864;8.656;2022-12-18T00:05:08;42.60;;;18.02;;
5493;SDS011;2769;49.864;8.656;2022-12-18T00:07:36;32.28;;;14.80;;
5493;SDS011;2769;49.864;8.656;2022-12-18T00:10:05;38.92;;;18.48;;
5493;SDS011;2769;49.864;8.656;2022-12-18T00:12:35;42.42;;;17.92;;
5493;SDS011;2769;49.864;8.656;2022-12-18T00:15:03;37.72;;;16.40;;
5493;SDS011;2769;49.864;8.656;2022-12-18T00:17:32;43.95;;;18.67;;
5493;SDS011;2769;49.864;8.656;2022-12-18T00:20:01;40.72;;;18.45;;
5493;SDS011;2769;49.864;8.656;2022-12-18T00:22:30;40.38;;;17.77;;
5493;SDS011;2769;49.864;8.656;2022-12-18T00:24:58;38.92;;;18.98;;
5493;SDS011;2769;49.864;8.656;2022-12-18T00:27:26;41.40;;;18.85;;
5493;SDS011;2769;49.864;8.656;2022-12-18T00:29:54;39.20;;;16.80;;
5493;SDS011;2769;49.864;8.656;2022-12-18T00:32:23;38.40;;;17.00;;
5493;SDS011;2769;49.864;8.656;2022-12-18T00:34:51;42.53;;;16.77;;
5493;SDS011;2769;49.864;8.656;2022-12-18T00:37:21;43.60;;;17.95;;
5493;SDS011;2769;49.864;8.656;2022-12-18T00:39:49;38.10;;;18.38;;
5493;SDS011;2769;49.864;8.656;2022-12-18T00:42:18;35.63;;;17.08;;
5493;SDS011;2769;49.864;8.656;2022-12-18T00:45:05;33.15;;;16.25;;
5493;SDS011;2769;49.864;8.656;2022-12-18T00:47:38;45.97;;;18.98;;
5493;SDS011;2769;49.864;8.656;2022-12-18T00:50:07;40.53;;;19.15;;
5493;SDS011;2769;49.864;8.656;2022-12-18T00:52:41;36.50;;;18.05;;
5493;SDS011;2769;49.864;8.656;2022-12-18T00:55:09;40.20;;;17.70;;
5493;SDS011;2769;49.864;8.656;2022-12-18T00:57:38;41.80;;;17.63;;
5493;SDS011;2769;49.864;8.656;2022-12-18T01:00:08;35.45;;;16.60;;
5493;SDS011;2769;49.864;8.656;2022-12-18T01:02:39;41.53;;;19.00;;
5493;SDS011;2769;49.864;8.656;2022-12-18T01:05:07;39.20;;;17.48;;
5493;SDS011;2769;49.864;8.656;2022-12-18T01:07:37;40.83;;;17.95;;
5493;SDS011;2769;49.864;8.656;2022-12-18T01:10:07;34.70;;;16.75;;
5493;SDS011;2769;49.864;8.656;2022-12-18T01:12:38;40.75;;;18.83;;
5493;SDS011;2769;49.864;8.656;2022-12-18T01:15:07;41.38;;;17.42;;
5493;SDS011;2769;49.864;8.656;2022-12-18T01:17:37;40.97;;;18.88;;
5493;SDS011;2769;49.864;8.656;2022-12-18T01:20:05;35.20;;;17.70;;
5493;SDS011;2769;49.864;8.656;2022-12-18T01:22:35;38.78;;;18.88;;
5493;SDS011;2769;49.864;8.656;2022-12-18T01:25:07;38.20;;;18.40;;
5493;SDS011;2769;49.864;8.656;2022-12-18T01:27:36;42.30;;;18.95;;
5493;SDS011;2769;49.864;8.656;2022-12-18T01:30:04;38.17;;;17.75;;
5493;SDS011;2769;49.864;8.656;2022-12-18T01:32:33;40.25;;;19.38;;
5493;SDS011;2769;49.864;8.656;2022-12-18T01:35:01;41.95;;;18.15;;
5493;SDS011;2769;49.864;8.656;2022-12-18T01:37:30;38.72;;;17.58;;
5493;SDS011;2769;49.864;8.656;2022-12-18T01:39:58;44.80;;;18.65;;
5493;SDS011;2769;49.864;8.656;2022-12-18T01:42:30;33.70;;;16.63;;
5493;SDS011;2769;49.864;8.656;2022-12-18T01:45:00;32.78;;;17.98;;
5493;SDS011;2769;49.864;8.656;2022-12-18T01:47:34;37.97;;;19.42;;
5493;SDS011;2769;49.864;8.656;2022-12-18T01:50:06;39.47;;;17.80;;
5493;SDS011;2769;49.864;8.656;2022-12-18T01:52:37;35.80;;;17.80;;
5493;SDS011;2769;49.864;8.656;2022-12-18T01:55:08;34.65;;;17.73;;
5493;SDS011;2769;49.864;8.656;2022-12-18T01:57:39;38.47;;;18.60;;
5493;SDS011;2769;49.864;8.656;2022-12-18T02:00:09;46.05;;;18.02;;
5493;SDS011;2769;49.864;8.656;2022-12-18T02:02:40;30.80;;;16.35;;
5493;SDS011;2769;49.864;8.656;2022-12-18T02:05:09;46.92;;;19.08;;
5493;SDS011;2769;49.864;8.656;2022-12-18T02:07:42;38.00;;;17.73;;
5493;SDS011;2769;49.864;8.656;2022-12-18T02:10:19;38.85;;;17.20;;
5493;SDS011;2769;49.864;8.656;2022-12-18T02:12:59;38.58;;;18.58;;
5493;SDS011;2769;49.864;8.656;2022-12-18T02:15:34;38.78;;;18.77;;
5493;SDS011;2769;49.864;8.656;2022-12-18T02:18:07;36.92;;;18.20;;
5493;SDS011;2769;49.864;8.656;2022-12-18T02:20:40;38.40;;;17.95;;
5493;SDS011;2769;49.864;8.656;2022-12-18T02:23:18;38.05;;;18.13;;
5493;SDS011;2769;49.864;8.656;2022-12-18T02:26:08;36.90;;;16.50;;
5493;SDS011;2769;49.864;8.656;2022-12-18T02:28:49;39.53;;;19.00;;
5493;SDS011;2769;49.864;8.656;2022-12-18T02:31:23;39.75;;;18.23;;
5493;SDS011;2769;49.864;8.656;2022-12-18T02:33:55;37.67;;;18.77;;
5493;SDS011;2769;49.864;8.656;2022-12-18T02:36:26;39.92;;;18.83;;
5493;SDS011;2769;49.864;8.656;2022-12-18T02:38:57;45.53;;;19.50;;
5493;SDS011;2769;49.864;8.656;2022-12-18T02:41:29;36.15;;;19.15;;
5493;SDS011;2769;49.864;8.656;2022-12-18T02:44:00;38.92;;;19.27;;
5493;SDS011;2769;49.864;8.656;2022-12-18T02:46:34;40.65;;;17.65;;
5493;SDS011;2769;49.864;8.656;2022-12-18T02:49:17;37.63;;;18.42;;
5493;SDS011;2769;49.864;8.656;2022-12-18T02:52:01;35.20;;;18.27;;
5493;SDS011;2769;49.864;8.656;2022-12-18T02:54:38;38.30;;;18.98;;
5493;SDS011;2769;49.864;8.656;2022-12-18T02:57:20;41.83;;;19.42;;
5493;SDS011;2769;49.864;8.656;2022-12-18T02:59:57;36.95;;;18.70;;
5493;SDS011;2769;49.864;8.656;2022-12-18T03:02:32;45.80;;;18.85;;
5493;SDS011;2769;49.864;8.656;2022-12-18T03:05:06;47.83;;;19.17;;
5493;SDS011;2769;49.864;8.656;2022-12-18T03:07:40;41.72;;;18.50;;
5493;SDS011;2769;49.864;8.656;2022-12-18T03:10:13;39.65;;;18.98;;
5493;SDS011;2769;49.864;8.656;2022-12-18T03:12:50;42.10;;;18.40;;
5493;SDS011;2769;49.864;8.656;2022-12-18T03:15:22;39.55;;;18.35;;
5493;SDS011;2769;49.864;8.656;2022-12-18T03:18:04;31.92;;;15.45;;
5493;SDS011;2769;49.864;8.656;2022-12-18T03:20:36;43.92;;;17.95;;
5493;SDS011;2769;49.864;8.656;2022-12-18T03:23:07;48.95;;;20.10;;
5493;SDS011;2769;49.864;8.656;2022-12-18T03:25:39;40.10;;;18.40;;
5493;SDS011;2769;49.864;8.656;2022-12-18T03:28:12;40.00;;;17.77;;
5493;SDS011;2769;49.864;8.656;2022-12-18T03:30:43;35.50;;;16.20;;
5493;SDS011;2769;49.864;8.656;2022-12-18T03:33:15;35.92;;;18.35;;
5493;SDS011;2769;49.864;8.656;2022-12-18T03:35:49;44.60;;;18.70;;
5493;SDS011;2769;49.864;8.656;2022-12-18T03:38:17;36.45;;;15.85;;
5493;SDS011;2769;49.864;8.656;2022-12-18T03:40:53;31.60;;;16.38;;
5493;SDS011;2769;49.864;8.656;2022-12-18T03:43:34;32.92;;;16.80;;
5493;SDS011;2769;49.864;8.656;2022-12-18T03:46:11;40.50;;;17.23;;
5493;SDS011;2769;49.864;8.656;2022-12-18T03:48:46;38.42;;;17.77;;
5493;SDS011;2769;49.864;8.656;2022-12-18T03:51:22;41.60;;;18.20;;
5493;SDS011;2769;49.864;8.656;2022-12-18T03:53:57;45.53;;;16.77;;
5493;SDS011;2769;49.864;8.656;2022-12-18T03:56:36;42.33;;;18.25;;
5493;SDS011;2769;49.864;8.656;2022-12-18T03:59:10;31.02;;;13.88;;
5493;SDS011;2769;49.864;8.656;2022-12-18T04:01:42;42.33;;;20.10;;
5493;SDS011;2769;49.864;8.656;2022-12-18T04:04:15;35.03;;;17.70;;
5493;SDS011;2769;49.864;8.656;2022-12-18T04:06:45;38.00;;;17.42;;
5493;SDS011;2769;49.864;8.656;2022-12-18T04:09:17;43.42;;;20.10;;
5493;SDS011;2769;49.864;8.656;2022-12-18T04:11:47;46.10;;;17.50;;
5493;SDS011;2769;49.864;8.656;2022-12-18T04:14:17;41.00;;;18.75;;
5493;SDS011;2769;49.864;8.656;2022-12-18T04:16:49;41.85;;;18.23;;
5493;SDS011;2769;49.864;8.656;2022-12-18T04:19:22;39.03;;;19.05;;
5493;SDS011;2769;49.864;8.656;2022-12-18T04:21:52;36.22;;;17.55;;
5493;SDS011;2769;49.864;8.656;2022-12-18T04:24:21;32.47;;;15.95;;
5493;SDS011;2769;49.864;8.656;2022-12-18T04:27:00;44.92;;;18.65;;
5493;SDS011;2769;49.864;8.656;2022-12-18T04:29:34;31.77;;;17.80;;
5493;SDS011;2769;49.864;8.656;2022-12-18T04:32:02;40.40;;;18.77;;
5493;SDS011;2769;49.864;8.656;2022-12-18T04:34:32;40.15;;;18.50;;
5493;SDS011;2769;49.864;8.656;2022-12-18T04:37:00;38.58;;;17.73;;
5493;SDS011;2769;49.864;8.656;2022-12-18T04:39:28;39.65;;;19.10;;
5493;SDS011;2769;49.864;8.656;2022-12-18T04:42:02;41.03;;;18.08;;
5493;SDS011;2769;49.864;8.656;2022-12-18T04:44:31;45.20;;;18.40;;
5493;SDS011;2769;49.864;8.656;2022-12-18T04:47:00;33.15;;;16.75;;
5493;SDS011;2769;49.864;8.656;2022-12-18T04:49:28;41.85;;;19.33;;
5493;SDS011;2769;49.864;8.656;2022-12-18T04:51:56;41.50;;;19.40;;
5493;SDS011;2769;49.864;8.656;2022-12-18T04:54:25;43.25;;;19.27;;
5493;SDS011;2769;49.864;8.656;2022-12-18T04:56:53;41.08;;;17.83;;
5493;SDS011;2769;49.864;8.656;2022-12-18T04:59:21;46.25;;;20.67;;
5493;SDS011;2769;49.864;8.656;2022-12-18T05:01:49;39.20;;;17.67;;
5493;SDS011;2769;49.864;8.656;2022-12-18T05:04:20;32.83;;;17.35;;
5493;SDS011;2769;49.864;8.656;2022-12-18T05:06:48;42.42;;;20.38;;
5493;SDS011;2769;49.864;8.656;2022-12-18T05:09:17;39.13;;;19.45;;
5493;SDS011;2769;49.864;8.656;2022-12-18T05:11:45;43.40;;;21.77;;
5493;SDS011;2769;49.864;8.656;2022-12-18T05:14:14;44.47;;;20.13;;
5493;SDS011;2769;49.864;8.656;2022-12-18T05:16:42;40.05;;;18.33;;
5493;SDS011;2769;49.864;8.656;2022-12-18T05:19:11;41.53;;;18.85;;
5493;SDS011;2769;49.864;8.656;2022-12-18T05:21:41;40.65;;;18.95;;
5493;SDS011;2769;49.864;8.656;2022-12-18T05:24:09;40.65;;;19.67;;
5493;SDS011;2769;49.864;8.656;2022-12-18T05:26:37;41.13;;;18.90;;
5493;SDS011;2769;49.864;8.656;2022-12-18T05:29:06;40.97;;;20.23;;
5493;SDS011;2769;49.864;8.656;2022-12-18T05:31:39;38.15;;;19.20;;
5493;SDS011;2769;49.864;8.656;2022-12-18T05:34:09;35.20;;;18.73;;
5493;SDS011;2769;49.864;8.656;2022-12-18T05:36:38;41.53;;;19.40;;
5493;SDS011;2769;49.864;8.656;2022-12-18T05:39:08;38.78;;;17.85;;
5493;SDS011;2769;49.864;8.656;2022-12-18T05:41:37;40.03;;;18.90;;
5493;SDS011;2769;49.864;8.656;2022-12-18T05:44:05;42.38;;;20.38;;
5493;SDS011;2769;49.864;8.656;2022-12-18T05:46:33;44.78;;;19.50;;
5493;SDS011;2769;49.864;8.656;2022-12-18T05:49:02;43.65;;;19.30;;
5493;SDS011;2769;49.864;8.656;2022-12-18T05:51:30;37.10;;;18.20;;
5493;SDS011;2769;49.864;8.656;2022-12-18T05:53:59;34.85;;;18.33;;
5493;SDS011;2769;49.864;8.656;2022-12-18T05:56:28;47.08;;;19.90;;
5493;SDS011;2769;49.864;8.656;2022-12-18T05:58:56;32.17;;;17.70;;
5493;SDS011;2769;49.864;8.656;2022-12-18T06:01:25;42.60;;;18.73;;
5493;SDS011;2769;49.864;8.656;2022-12-18T06:03:57;36.13;;;19.20;;
5493;SDS011;2769;49.864;8.656;2022-12-18T06:06:26;40.42;;;18.88;;
5493;SDS011;2769;49.864;8.656;2022-12-18T06:08:55;36.95;;;17.60;;
5493;SDS011;2769;49.864;8.656;2022-12-18T06:11:25;36.95;;;18.30;;
5493;SDS011;2769;49.864;8.656;2022-12-18T06:13:55;41.05;;;18.67;;
5493;SDS011;2769;49.864;8.656;2022-12-18T06:16:25;35.20;;;17.15;;
5493;SDS011;2769;49.864;8.656;2022-12-18T06:18:55;40.58;;;19.38;;
5493;SDS011;2769;49.864;8.656;2022-12-18T06:21:25;41.00;;;19.88;;
5493;SDS011;2769;49.864;8.656;2022-12-18T06:23:54;39.45;;;18.00;;
5493;SDS011;2769;49.864;8.656;2022-12-18T06:26:22;40.58;;;19.42;;
5493;SDS011;2769;49.864;8.656;2022-12-18T06:28:55;37.40;;;17.15;;
5493;SDS011;2769;49.864;8.656;2022-12-18T06:31:24;37.22;;;18.92;;
5493;SDS011;2769;49.864;8.656;2022-12-18T06:33:52;36.78;;;18.50;;
5493;SDS011;2769;49.864;8.656;2022-12-18T06:36:20;45.17;;;19.88;;
5493;SDS011;2769;49.864;8.656;2022-12-18T06:38:49;40.22;;;18.95;;
5493;SDS011;2769;49.864;8.656;2022-12-18T06:41:18;41.03;;;20.05;;
5493;SDS011;2769;49.864;8.656;2022-12-18T06:43:47;37.95;;;17.50;;
5493;SDS011;2769;49.864;8.656;2022-12-18T06:46:16;44.00;;;20.48;;
5493;SDS011;2769;49.864;8.656;2022-12-18T06:48:46;40.30;;;18.50;;
5493;SDS011;2769;49.864;8.656;2022-12-18T06:51:17;37.83;;;19.30;;
5493;SDS011;2769;49.864;8.656;2022-12-18T06:53:45;43.25;;;20.88;;
5493;SDS011;2769;49.864;8.656;2022-12-18T06:56:14;39.53;;;18.90;;
5493;SDS011;2769;49.864;8.656;2022-12-18T06:58:43;37.85;;;19.35;;
5493;SDS011;2769;49.864;8.656;2022-12-18T07:01:11;40.05;;;20.13;;
5493;SDS011;2769;49.864;8.656;2022-12-18T07:03:42;35.55;;;18.15;;
5493;SDS011;2769;49.864;8.656;2022-12-18T07:06:14;40.85;;;18.48;;
5493;SDS011;2769;49.864;8.656;2022-12-18T07:08:44;38.63;;;17.80;;
5493;SDS011;2769;49.864;8.656;2022-12-18T07:11:12;36.83;;;18.77;;
5493;SDS011;2769;49.864;8.656;2022-12-18T07:13:41;44.42;;;19.05;;
5493;SDS011;2769;49.864;8.656;2022-12-18T07:16:10;40.10;;;17.52;;
5493;SDS011;2769;49.864;8.656;2022-12-18T07:18:49;35.90;;;17.00;;
5493;SDS011;2769;49.864;8.656;2022-12-18T07:21:18;39.25;;;17.13;;
5493;SDS011;2769;49.864;8.656;2022-12-18T07:23:47;39.90;;;16.73;;
5493;SDS011;2769;49.864;8.656;2022-12-18T07:26:16;37.70;;;16.08;;
5493;SDS011;2769;49.864;8.656;2022-12-18T07:28:46;41.63;;;18.70;;
5493;SDS011;2769;49.864;8.656;2022-12-18T07:31:15;38.65;;;17.10;;
5493;SDS011;2769;49.864;8.656;2022-12-18T07:33:48;46.03;;;18.20;;
5493;SDS011;2769;49.864;8.656;2022-12-18T07:36:17;43.88;;;16.92;;
5493;SDS011;2769;49.864;8.656;2022-12-18T07:38:46;36.10;;;15.35;;
5493;SDS011;2769;49.864;8.656;2022-12-18T07:41:15;35.28;;;17.33;;
5493;SDS011;2769;49.864;8.656;2022-12-18T07:43:45;44.25;;;18.25;;
5493;SDS011;2769;49.864;8.656;2022-12-18T07:46:14;44.97;;;18.30;;
5493;SDS011;2769;49.864;8.656;2022-12-18T07:48:44;40.55;;;17.08;;
5493;SDS011;2769;49.864;8.656;2022-12-18T07:51:17;39.72;;;17.15;;
5493;SDS011;2769;49.864;8.656;2022-12-18T07:53:45;44.20;;;18.27;;
5493;SDS011;2769;49.864;8.656;2022-12-18T07:56:18;41.95;;;15.93;;
5493;SDS011;2769;49.864;8.656;2022-12-18T07:58:56;33.90;;;15.73;;
5493;SDS011;2769;49.864;8.656;2022-12-18T08:01:24;36.75;;;15.35;;
5493;SDS011;2769;49.864;8.656;2022-12-18T08:03:53;41.88;;;16.17;;
5493;SDS011;2769;49.864;8.656;2022-12-18T08:06:22;37.08;;;17.25;;
5493;SDS011;2769;49.864;8.656;2022-12-18T08:08:51;44.60;;;16.20;;
5493;SDS011;2769;49.864;8.656;2022-12-18T08:11:20;43.25;;;16.83;;
5493;SDS011;2769;49.864;8.656;2022-12-18T08:13:49;37.58;;;16.63;;
5493;SDS011;2769;49.864;8.656;2022-12-18T08:16:18;36.95;;;16.58;;
5493;SDS011;2769;49.864;8.656;2022-12-18T08:18:47;36.72;;;16.17;;
5493;SDS011;2769;49.864;8.656;2022-12-18T08:21:16;38.80;;;15.68;;
5493;SDS011;2769;49.864;8.656;2022-12-18T08:23:48;37.42;;;17.20;;
5493;SDS011;2769;49.864;8.656;2022-12-18T08:26:17;33.90;;;15.65;;
5493;SDS011;2769;49.864;8.656;2022-12-18T08:28:47;35.20;;;16.13;;
5493;SDS011;2769;49.864;8.656;2022-12-18T08:31:16;40.78;;;17.13;;
5493;SDS011;2769;49.864;8.656;2022-12-18T08:33:44;40.10;;;17.50;;
5493;SDS011;2769;49.864;8.656;2022-12-18T08:36:15;36.03;;;15.70;;
5493;SDS011;2769;49.864;8.656;2022-12-18T08:38:43;37.65;;;16.60;;
5493;SDS011;2769;49.864;8.656;2022-12-18T08:41:14;36.88;;;17.33;;
5493;SDS011;2769;49.864;8.656;2022-12-18T08:43:43;40.95;;;17.40;;
5493;SDS011;2769;49.864;8.656;2022-12-18T08:46:31;42.28;;;18.58;;
5493;SDS011;2769;49.864;8.656;2022-12-18T08:49:02;39.15;;;17.48;;
5493;SDS011;2769;49.864;8.656;2022-12-18T08:51:31;42.70;;;18.42;;
5493;SDS011;2769;49.864;8.656;2022-12-18T08:53:59;43.85;;;18.65;;
5493;SDS011;2769;49.864;8.656;2022-12-18T08:56:30;39.13;;;16.95;;
5493;SDS011;2769;49.864;8.656;2022-12-18T08:58:59;40.63;;;19.85;;
5493;SDS011;2769;49.864;8.656;2022-12-18T09:01:27;42.75;;;18.35;;
5493;SDS011;2769;49.864;8.656;2022-12-18T09:03:57;43.97;;;18.65;;
5493;SDS011;2769;49.864;8.656;2022-12-18T09:06:25;45.47;;;19.73;;
5493;SDS011;2769;49.864;8.656;2022-12-18T09:08:55;39.20;;;18.35;;
5493;SDS011;2769;49.864;8.656;2022-12-18T09:11:26;46.47;;;21.13;;
5493;SDS011;2769;49.864;8.656;2022-12-18T09:13:58;40.28;;;20.25;;
5493;SDS011;2769;49.864;8.656;2022-12-18T09:16:28;51.15;;;21.08;;
5493;SDS011;2769;49.864;8.656;2022-12-18T09:18:58;42.45;;;19.42;;
5493;SDS011;2769;49.864;8.656;2022-12-18T09:21:27;47.75;;;19.75;;
5493;SDS011;2769;49.864;8.656;2022-12-18T09:24:02;47.88;;;20.92;;
5493;SDS011;2769;49.864;8.656;2022-12-18T09:26:34;46.63;;;21.23;;
5493;SDS011;2769;49.864;8.656;2022-12-18T09:29:06;43.55;;;21.55;;
5493;SDS011;2769;49.864;8.656;2022-12-18T09:31:36;44.38;;;20.88;;
5493;SDS011;2769;49.864;8.656;2022-12-18T09:34:05;42.33;;;21.85;;
5493;SDS011;2769;49.864;8.656;2022-12-18T09:36:33;46.97;;;22.38;;
5493;SDS011;2769;49.864;8.656;2022-12-18T09:39:02;49.58;;;21.20;;
5493;SDS011;2769;49.864;8.656;2022-12-18T09:41:44;44.17;;;21.23;;
5493;SDS011;2769;49.864;8.656;2022-12-18T09:44:18;46.58;;;20.67;;
5493;SDS011;2769;49.864;8.656;2022-12-18T09:46:54;43.92;;;21.35;;
5493;SDS011;2769;49.864;8.656;2022-12-18T09:49:39;44.20;;;20.90;;
5493;SDS011;2769;49.864;8.656;2022-12-18T09:52:12;44.25;;;23.02;;
5493;SDS011;2769;49.864;8.656;2022-12-18T09:54:46;42.25;;;20.17;;
5493;SDS011;2769;49.864;8.656;2022-12-18T09:57:20;46.27;;;21.90;;
5493;SDS011;2769;49.864;8.656;2022-12-18T09:59:53;41.47;;;21.13;;
5493;SDS011;2769;49.864;8.656;2022-12-18T10:02:26;43.27;;;21.80;;
5493;SDS011;2769;49.864;8.656;2022-12-18T10:05:05;43.00;;;21.40;;
5493;SDS011;2769;49.864;8.656;2022-12-18T10:07:42;45.63;;;20.67;;
5493;SDS011;2769;49.864;8.656;2022-12-18T10:10:19;42.80;;;21.37;;
5493;SDS011;2769;49.864;8.656;2022-12-18T10:13:00;44.53;;;20.50;;
5493;SDS011;2769;49.864;8.656;2022-12-18T10:15:37;39.70;;;20.30;;
5493;SDS011;2769;49.864;8.656;2022-12-18T10:18:14;46.07;;;21.90;;
5493;SDS011;2769;49.864;8.656;2022-12-18T10:20:54;44.93;;;20.97;;
5493;SDS011;2769;49.864;8.656;2022-12-18T10:23:26;43.57;;;22.63;;
5493;SDS011;2769;49.864;8.656;2022-12-18T10:26:01;43.53;;;20.70;;
5493;SDS011;2769;49.864;8.656;2022-12-18T10:28:33;45.77;;;20.60;;
5493;SDS011;2769;49.864;8.656;2022-12-18T10:31:06;43.20;;;22.17;;
5493;SDS011;2769;49.864;8.656;2022-12-18T10:33:40;45.30;;;22.07;;
5493;SDS011;2769;49.864;8.656;2022-12-18T10:36:10;43.57;;;21.70;;
5493;SDS011;2769;49.864;8.656;2022-12-18T10:38:38;42.63;;;20.03;;
5493;SDS011;2769;49.864;8.656;2022-12-18T10:41:21;42.50;;;20.13;;
5493;SDS011;2769;49.864;8.656;2022-12-18T10:44:10;45.27;;;21.43;;
5493;SDS011;2769;49.864;8.656;2022-12-18T10:46:43;43.50;;;20.87;;
5493;SDS011;2769;49.864;8.656;2022-12-18T10:49:19;42.80;;;20.10;;
5493;SDS011;2769;49.864;8.656;2022-12-18T10:52:03;45.33;;;20.60;;
5493;SDS011;2769;49.864;8.656;2022-12-18T10:54:33;40.20;;;19.60;;
5493;SDS011;2769;49.864;8.656;2022-12-18T10:57:15;40.80;;;20.23;;
5493;SDS011;2769;49.864;8.656;2022-12-18T10:59:50;44.97;;;19.83;;
5493;SDS011;2769;49.864;8.656;2022-12-18T11:02:34;44.33;;;20.83;;
5493;SDS011;2769;49.864;8.656;2022-12-18T11:05:21;42.27;;;19.10;;
5493;SDS011;2769;49.864;8.656;2022-12-18T11:07:53;44.43;;;20.90;;
5493;SDS011;2769;49.864;8.656;2022-12-18T11:10:22;42.87;;;20.70;;
5493;SDS011;2769;49.864;8.656;2022-12-18T11:12:55;42.27;;;20.20;;
5493;SDS011;2769;49.864;8.656;2022-12-18T11:15:36;46.53;;;20.30;;
5493;SDS011;2769;49.864;8.656;2022-12-18T11:18:15;36.93;;;19.00;;
5493;SDS011;2769;49.864;8.656;2022-12-18T11:20:50;43.00;;;20.47;;
5493;SDS011;2769;49.864;8.656;2022-12-18T11:23:25;43.40;;;19.10;;
5493;SDS011;2769;49.864;8.656;2022-12-18T11:25:58;41.37;;;20.83;;
5493;SDS011;2769;49.864;8.656;2022-12-18T11:28:29;45.77;;;21.70;;
5493;SDS011;2769;49.864;8.656;2022-12-18T11:31:12;42.03;;;19.90;;
5493;SDS011;2769;49.864;8.656;2022-12-18T11:33:47;42.57;;;19.90;;
5493;SDS011;2769;49.864;8.656;2022-12-18T11:36:42;44.03;;;19.50;;
5493;SDS011;2769;49.864;8.656;2022-12-18T11:39:13;42.47;;;20.10;;
5493;SDS011;2769;49.864;8.656;2022-12-18T11:41:49;42.47;;;19.50;;
5493;SDS011;2769;49.864;8.656;2022-12-18T11:44:39;43.60;;;20.27;;
5493;SDS011;2769;49.864;8.656;2022-12-18T11:47:19;41.67;;;19.60;;
5493;SDS011;2769;49.864;8.656;2022-12-18T11:49:59;42.13;;;18.70;;
5493;SDS011;2769;49.864;8.656;2022-12-18T11:52:31;35.97;;;17.90;;
5493;SDS011;2769;49.864;8.656;2022-12-18T11:55:05;42.17;;;18.33;;
5493;SDS011;2769;49.864;8.656;2022-12-18T11:57:40;46.07;;;19.10;;
5493;SDS011;2769;49.864;8.656;2022-12-18T12:00:27;47.13;;;18.90;;
5493;SDS011;2769;49.864;8.656;2022-12-18T12:05:59;46.43;;;19.80;;
5493;SDS011;2769;49.864;8.656;2022-12-18T12:08:40;43.60;;;20.13;;
5493;SDS011;2769;49.864;8.656;2022-12-18T12:11:19;45.10;;;19.10;;
5493;SDS011;2769;49.864;8.656;2022-12-18T12:14:00;44.37;;;18.60;;
5493;SDS011;2769;49.864;8.656;2022-12-18T12:16:48;43.30;;;18.53;;
5493;SDS011;2769;49.864;8.656;2022-12-18T12:19:27;44.10;;;20.27;;
5493;SDS011;2769;49.864;8.656;2022-12-18T12:22:06;43.87;;;19.77;;
5493;SDS011;2769;49.864;8.656;2022-12-18T12:24:45;39.17;;;18.70;;
5493;SDS011;2769;49.864;8.656;2022-12-18T12:27:24;42.47;;;17.90;;
5493;SDS011;2769;49.864;8.656;2022-12-18T12:30:01;43.90;;;19.77;;
5493;SDS011;2769;49.864;8.656;2022-12-18T12:32:43;45.60;;;19.20;;
5493;SDS011;2769;49.864;8.656;2022-12-18T12:35:21;41.80;;;18.67;;
5493;SDS011;2769;49.864;8.656;2022-12-18T12:38:02;44.00;;;19.30;;
5493;SDS011;2769;49.864;8.656;2022-12-18T12:40:36;41.40;;;19.63;;
5493;SDS011;2769;49.864;8.656;2022-12-18T12:43:25;48.90;;;19.90;;
5493;SDS011;2769;49.864;8.656;2022-12-18T12:45:58;48.10;;;19.50;;
5493;SDS011;2769;49.864;8.656;2022-12-18T12:48:34;44.27;;;18.70;;
5493;SDS011;2769;49.864;8.656;2022-12-18T12:51:11;39.90;;;18.07;;
5493;SDS011;2769;49.864;8.656;2022-12-18T12:53:45;47.57;;;18.60;;
5493;SDS011;2769;49.864;8.656;2022-12-18T12:56:14;56.93;;;19.17;;
5493;SDS011;2769;49.864;8.656;2022-12-18T12:58:48;47.70;;;19.80;;
5493;SDS011;2769;49.864;8.656;2022-12-18T13:01:28;42.80;;;17.53;;
5493;SDS011;2769;49.864;8.656;2022-12-18T13:04:08;47.00;;;18.90;;
5493;SDS011;2769;49.864;8.656;2022-12-18T13:06:49;43.77;;;18.43;;
5493;SDS011;2769;49.864;8.656;2022-12-18T13:09:26;43.30;;;18.27;;
5493;SDS011;2769;49.864;8.656;2022-12-18T13:12:01;46.73;;;19.00;;
5493;SDS011;2769;49.864;8.656;2022-12-18T13:14:49;46.60;;;18.70;;
5493;SDS011;2769;49.864;8.656;2022-12-18T13:17:28;43.33;;;18.97;;
5493;SDS011;2769;49.864;8.656;2022-12-18T13:20:09;44.93;;;19.40;;
5493;SDS011;2769;49.864;8.656;2022-12-18T13:22:43;54.20;;;18.63;;
5493;SDS011;2769;49.864;8.656;2022-12-18T13:25:34;47.10;;;18.73;;
5493;SDS011;2769;49.864;8.656;2022-12-18T13:28:05;45.37;;;19.67;;
5493;SDS011;2769;49.864;8.656;2022-12-18T13:30:52;45.93;;;19.57;;
5493;SDS011;2769;49.864;8.656;2022-12-18T13:36:35;45.77;;;19.80;;
5493;SDS011;2769;49.864;8.656;2022-12-18T13:39:11;46.50;;;18.33;;
5493;SDS011;2769;49.864;8.656;2022-12-18T13:45:47;47.40;;;18.60;;
5493;SDS011;2769;49.864;8.656;2022-12-18T13:48:26;46.10;;;21.45;;
5493;SDS011;2769;49.864;8.656;2022-12-18T13:50:58;57.13;;;21.07;;
5493;SDS011;2769;49.864;8.656;2022-12-18T13:53:30;47.37;;;19.60;;
5493;SDS011;2769;49.864;8.656;2022-12-18T13:56:04;42.40;;;19.23;;
5493;SDS011;2769;49.864;8.656;2022-12-18T13:58:33;46.20;;;19.07;;
5493;SDS011;2769;49.864;8.656;2022-12-18T14:01:03;42.63;;;19.10;;
5493;SDS011;2769;49.864;8.656;2022-12-18T14:03:32;45.57;;;18.60;;
5493;SDS011;2769;49.864;8.656;2022-12-18T14:06:04;59.53;;;19.80;;
5493;SDS011;2769;49.864;8.656;2022-12-18T14:08:36;45.37;;;19.70;;
5493;SDS011;2769;49.864;8.656;2022-12-18T14:11:07;42.30;;;17.93;;
5493;SDS011;2769;49.864;8.656;2022-12-18T14:13:48;50.07;;;19.10;;
5493;SDS011;2769;49.864;8.656;2022-12-18T14:16:18;44.93;;;19.10;;
5493;SDS011;2769;49.864;8.656;2022-12-18T14:18:48;48.17;;;17.80;;
5493;SDS011;2769;49.864;8.656;2022-12-18T14:21:24;48.63;;;18.33;;
5493;SDS011;2769;49.864;8.656;2022-12-18T14:24:04;44.57;;;17.90;;
5493;SDS011;2769;49.864;8.656;2022-12-18T14:26:40;45.13;;;17.90;;
5493;SDS011;2769;49.864;8.656;2022-12-18T14:29:19;42.77;;;17.83;;
5493;SDS011;2769;49.864;8.656;2022-12-18T14:32:10;42.80;;;18.07;;
5493;SDS011;2769;49.864;8.656;2022-12-18T14:34:44;42.27;;;17.73;;
5493;SDS011;2769;49.864;8.656;2022-12-18T14:37:14;38.77;;;17.40;;
5493;SDS011;2769;49.864;8.656;2022-12-18T14:39:53;40.77;;;17.50;;
5493;SDS011;2769;49.864;8.656;2022-12-18T14:42:32;41.17;;;17.97;;
5493;SDS011;2769;49.864;8.656;2022-12-18T14:48:11;47.20;;;18.57;;
5493;SDS011;2769;49.864;8.656;2022-12-18T14:50:59;40.00;;;16.27;;
5493;SDS011;2769;49.864;8.656;2022-12-18T14:53:33;37.73;;;16.77;;
5493;SDS011;2769;49.864;8.656;2022-12-18T14:56:03;41.63;;;17.03;;
5493;SDS011;2769;49.864;8.656;2022-12-18T14:58:49;42.63;;;16.20;;
5493;SDS011;2769;49.864;8.656;2022-12-18T15:01:20;42.33;;;17.00;;
5493;SDS011;2769;49.864;8.656;2022-12-18T15:03:53;38.93;;;17.20;;
5493;SDS011;2769;49.864;8.656;2022-12-18T15:06:26;34.33;;;15.77;;
5493;SDS011;2769;49.864;8.656;2022-12-18T15:08:58;39.00;;;16.37;;
5493;SDS011;2769;49.864;8.656;2022-12-18T15:11:29;46.93;;;18.40;;
5493;SDS011;2769;49.864;8.656;2022-12-18T15:16:51;45.27;;;17.17;;
5493;SDS011;2769;49.864;8.656;2022-12-18T15:19:25;41.73;;;17.53;;
5493;SDS011;2769;49.864;8.656;2022-12-18T15:22:01;38.93;;;17.23;;
5493;SDS011;2769;49.864;8.656;2022-12-18T15:24:32;37.00;;;16.67;;
5493;SDS011;2769;49.864;8.656;2022-12-18T15:27:00;43.90;;;17.40;;
5493;SDS011;2769;49.864;8.656;2022-12-18T15:29:29;41.77;;;17.90;;
5493;SDS011;2769;49.864;8.656;2022-12-18T15:31:58;40.80;;;17.17;;
5493;SDS011;2769;49.864;8.656;2022-12-18T15:34:30;40.30;;;17.87;;
5493;SDS011;2769;49.864;8.656;2022-12-18T15:37:00;40.20;;;16.93;;